sensor_id;sensor_type;location;lat;lon;timestamp;P1;durP1;ratioP1;P2;durP2;ratioP2
19653;SDS011;9975;48.046;7.804;2023-03-03T01:56:52;24.38;;;11.13;;
19653;SDS011;9975;48.046;7.804;2023-03-03T01:59:22;31.48;;;14.70;;
19653;SDS011;9975;48.046;7.804;2023-03-03T02:01:51;41.83;;;15.60;;
19653;SDS011;9975;48.046;7.804;2023-03-03T02:04:17;35.83;;;15.82;;
19653;SDS011;9975;48.046;7.804;2023-03-03T02:06:44;45.25;;;18.02;;
19653;SDS011;9975;48.046;7.804;2023-03-03T02:09:26;37.17;;;13.80;;
19653;SDS011;9975;48.046;7.804;2023-03-03T02:11:54;33.50;;;15.52;;
19653;SDS011;9975;48.046;7.804;2023-03-03T02:14:23;32.47;;;13.48;;
19653;SDS011;9975;48.046;7.804;2023-03-03T02:16:49;37.97;;;15.63;;
19653;SDS011;9975;48.046;7.804;2023-03-03T02:19:18;37.67;;;13.63;;
19653;SDS011;9975;48.046;7.804;2023-03-03T02:21:53;38.47;;;13.95;;
19653;SDS011;9975;48.046;7.804;2023-03-03T02:26:49;29.42;;;15.13;;
19653;SDS011;9975;48.046;7.804;2023-03-03T02:29:15;39.87;;;15.57;;
19653;SDS011;9975;48.046;7.804;2023-03-03T02:31:41;38.83;;;13.57;;
19653;SDS011;9975;48.046;7.804;2023-03-03T02:34:07;27.27;;;13.60;;
19653;SDS011;9975;48.046;7.804;2023-03-03T02:36:34;35.13;;;14.77;;
19653;SDS011;9975;48.046;7.804;2023-03-03T02:44:30;26.67;;;14.20;;
19653;SDS011;9975;48.046;7.804;2023-03-03T02:46:56;33.72;;;15.50;;
19653;SDS011;9975;48.046;7.804;2023-03-03T02:49:23;35.88;;;14.73;;
19653;SDS011;9975;48.046;7.804;2023-03-03T02:51:56;30.15;;;15.15;;
19653;SDS011;9975;48.046;7.804;2023-03-03T02:54:23;33.97;;;14.30;;
19653;SDS011;9975;48.046;7.804;2023-03-03T02:56:50;29.05;;;14.80;;
19653;SDS011;9975;48.046;7.804;2023-03-03T02:59:16;37.30;;;14.10;;
19653;SDS011;9975;48.046;7.804;2023-03-03T03:01:42;31.45;;;14.15;;
19653;SDS011;9975;48.046;7.804;2023-03-03T03:04:09;31.40;;;13.65;;
19653;SDS011;9975;48.046;7.804;2023-03-03T03:06:40;33.10;;;13.57;;
19653;SDS011;9975;48.046;7.804;2023-03-03T03:09:06;33.10;;;13.40;;
19653;SDS011;9975;48.046;7.804;2023-03-03T03:11:33;30.92;;;14.82;;
19653;SDS011;9975;48.046;7.804;2023-03-03T03:13:59;36.65;;;17.20;;
19653;SDS011;9975;48.046;7.804;2023-03-03T03:16:26;34.83;;;14.95;;
19653;SDS011;9975;48.046;7.804;2023-03-03T03:18:51;39.07;;;17.07;;
19653;SDS011;9975;48.046;7.804;2023-03-03T03:21:17;37.37;;;17.27;;
19653;SDS011;9975;48.046;7.804;2023-03-03T03:23:43;36.40;;;15.80;;
19653;SDS011;9975;48.046;7.804;2023-03-03T03:26:09;37.33;;;14.47;;
19653;SDS011;9975;48.046;7.804;2023-03-03T03:28:35;36.78;;;13.75;;
19653;SDS011;9975;48.046;7.804;2023-03-03T03:31:01;35.27;;;14.73;;
19653;SDS011;9975;48.046;7.804;2023-03-03T03:33:27;27.73;;;13.88;;
19653;SDS011;9975;48.046;7.804;2023-03-03T03:35:52;33.40;;;14.60;;
19653;SDS011;9975;48.046;7.804;2023-03-03T03:38:19;32.58;;;14.15;;
19653;SDS011;9975;48.046;7.804;2023-03-03T03:40:46;32.05;;;14.80;;
19653;SDS011;9975;48.046;7.804;2023-03-03T03:43:11;35.17;;;13.67;;
19653;SDS011;9975;48.046;7.804;2023-03-03T03:45:37;36.10;;;14.53;;
19653;SDS011;9975;48.046;7.804;2023-03-03T03:48:02;36.13;;;15.77;;
19653;SDS011;9975;48.046;7.804;2023-03-03T03:50:28;35.10;;;15.17;;
19653;SDS011;9975;48.046;7.804;2023-03-03T03:52:54;36.33;;;15.10;;
19653;SDS011;9975;48.046;7.804;2023-03-03T03:55:20;27.63;;;14.33;;
19653;SDS011;9975;48.046;7.804;2023-03-03T03:57:47;41.15;;;16.85;;
19653;SDS011;9975;48.046;7.804;2023-03-03T04:00:13;33.95;;;15.20;;
19653;SDS011;9975;48.046;7.804;2023-03-03T04:02:39;38.13;;;15.40;;
19653;SDS011;9975;48.046;7.804;2023-03-03T04:05:05;31.70;;;14.37;;
19653;SDS011;9975;48.046;7.804;2023-03-03T04:07:31;35.67;;;16.20;;
19653;SDS011;9975;48.046;7.804;2023-03-03T04:09:57;37.23;;;16.20;;
19653;SDS011;9975;48.046;7.804;2023-03-03T04:12:22;40.37;;;14.90;;
19653;SDS011;9975;48.046;7.804;2023-03-03T04:14:48;37.90;;;15.23;;
19653;SDS011;9975;48.046;7.804;2023-03-03T04:17:17;39.60;;;15.87;;
19653;SDS011;9975;48.046;7.804;2023-03-03T04:19:44;29.13;;;12.15;;
19653;SDS011;9975;48.046;7.804;2023-03-03T04:22:10;32.40;;;14.60;;
19653;SDS011;9975;48.046;7.804;2023-03-03T04:24:37;35.30;;;14.52;;
19653;SDS011;9975;48.046;7.804;2023-03-03T04:27:03;33.33;;;14.57;;
19653;SDS011;9975;48.046;7.804;2023-03-03T04:29:30;35.47;;;14.35;;
19653;SDS011;9975;48.046;7.804;2023-03-03T04:31:55;38.10;;;15.70;;
19653;SDS011;9975;48.046;7.804;2023-03-03T04:34:21;37.27;;;15.20;;
19653;SDS011;9975;48.046;7.804;2023-03-03T04:36:46;28.90;;;14.00;;
19653;SDS011;9975;48.046;7.804;2023-03-03T04:39:12;37.37;;;13.67;;
19653;SDS011;9975;48.046;7.804;2023-03-03T04:41:38;37.43;;;15.17;;
19653;SDS011;9975;48.046;7.804;2023-03-03T04:44:03;34.77;;;14.97;;
19653;SDS011;9975;48.046;7.804;2023-03-03T04:46:29;37.30;;;16.40;;
19653;SDS011;9975;48.046;7.804;2023-03-03T04:48:54;27.77;;;14.80;;
19653;SDS011;9975;48.046;7.804;2023-03-03T04:51:20;38.08;;;15.10;;
19653;SDS011;9975;48.046;7.804;2023-03-03T04:53:46;36.03;;;16.10;;
19653;SDS011;9975;48.046;7.804;2023-03-03T04:56:12;28.43;;;14.43;;
19653;SDS011;9975;48.046;7.804;2023-03-03T04:58:38;34.37;;;16.33;;
19653;SDS011;9975;48.046;7.804;2023-03-03T05:01:03;34.57;;;16.80;;
19653;SDS011;9975;48.046;7.804;2023-03-03T05:03:29;35.60;;;15.80;;
19653;SDS011;9975;48.046;7.804;2023-03-03T05:05:55;36.90;;;16.60;;
19653;SDS011;9975;48.046;7.804;2023-03-03T05:08:22;32.37;;;16.70;;
19653;SDS011;9975;48.046;7.804;2023-03-03T05:10:51;35.55;;;15.82;;
19653;SDS011;9975;48.046;7.804;2023-03-03T05:13:18;34.67;;;14.55;;
19653;SDS011;9975;48.046;7.804;2023-03-03T05:15:48;31.47;;;15.77;;
19653;SDS011;9975;48.046;7.804;2023-03-03T05:18:15;30.92;;;14.00;;
19653;SDS011;9975;48.046;7.804;2023-03-03T05:20:41;31.58;;;15.60;;
19653;SDS011;9975;48.046;7.804;2023-03-03T05:23:07;33.93;;;14.60;;
19653;SDS011;9975;48.046;7.804;2023-03-03T05:25:32;45.60;;;16.00;;
19653;SDS011;9975;48.046;7.804;2023-03-03T05:27:58;38.07;;;15.40;;
19653;SDS011;9975;48.046;7.804;2023-03-03T05:30:24;39.67;;;14.40;;
19653;SDS011;9975;48.046;7.804;2023-03-03T05:32:49;41.70;;;16.57;;
19653;SDS011;9975;48.046;7.804;2023-03-03T05:35:15;42.87;;;15.27;;
19653;SDS011;9975;48.046;7.804;2023-03-03T05:37:41;37.63;;;14.60;;
19653;SDS011;9975;48.046;7.804;2023-03-03T05:40:12;34.65;;;14.70;;
19653;SDS011;9975;48.046;7.804;2023-03-03T05:42:38;35.08;;;16.23;;
19653;SDS011;9975;48.046;7.804;2023-03-03T05:45:05;42.97;;;17.20;;
19653;SDS011;9975;48.046;7.804;2023-03-03T05:47:31;37.78;;;15.52;;
19653;SDS011;9975;48.046;7.804;2023-03-03T05:49:57;35.17;;;16.60;;
19653;SDS011;9975;48.046;7.804;2023-03-03T05:52:22;33.60;;;12.83;;
19653;SDS011;9975;48.046;7.804;2023-03-03T05:54:48;38.63;;;16.50;;
19653;SDS011;9975;48.046;7.804;2023-03-03T05:57:14;34.60;;;14.97;;
19653;SDS011;9975;48.046;7.804;2023-03-03T05:59:39;33.77;;;15.73;;
19653;SDS011;9975;48.046;7.804;2023-03-03T06:02:05;41.10;;;15.83;;
19653;SDS011;9975;48.046;7.804;2023-03-03T06:04:31;40.35;;;16.10;;
19653;SDS011;9975;48.046;7.804;2023-03-03T06:06:57;31.97;;;14.00;;
19653;SDS011;9975;48.046;7.804;2023-03-03T06:09:23;34.13;;;15.60;;
19653;SDS011;9975;48.046;7.804;2023-03-03T06:11:50;38.42;;;16.25;;
19653;SDS011;9975;48.046;7.804;2023-03-03T06:14:17;35.92;;;15.85;;
19653;SDS011;9975;48.046;7.804;2023-03-03T06:16:45;39.20;;;16.40;;
19653;SDS011;9975;48.046;7.804;2023-03-03T06:19:11;42.10;;;16.30;;
19653;SDS011;9975;48.046;7.804;2023-03-03T06:21:37;37.77;;;16.20;;
19653;SDS011;9975;48.046;7.804;2023-03-03T06:24:02;41.97;;;15.90;;
19653;SDS011;9975;48.046;7.804;2023-03-03T06:26:28;37.80;;;16.17;;
19653;SDS011;9975;48.046;7.804;2023-03-03T06:28:54;31.52;;;14.88;;
19653;SDS011;9975;48.046;7.804;2023-03-03T06:31:20;39.50;;;17.07;;
19653;SDS011;9975;48.046;7.804;2023-03-03T06:33:46;39.53;;;17.97;;
19653;SDS011;9975;48.046;7.804;2023-03-03T06:36:11;37.57;;;16.53;;
19653;SDS011;9975;48.046;7.804;2023-03-03T06:38:37;41.00;;;15.70;;
19653;SDS011;9975;48.046;7.804;2023-03-03T06:41:03;37.53;;;16.50;;
19653;SDS011;9975;48.046;7.804;2023-03-03T06:43:31;39.38;;;17.45;;
19653;SDS011;9975;48.046;7.804;2023-03-03T06:45:57;35.70;;;16.65;;
19653;SDS011;9975;48.046;7.804;2023-03-03T06:48:23;33.93;;;16.57;;
19653;SDS011;9975;48.046;7.804;2023-03-03T06:50:49;39.37;;;16.20;;
19653;SDS011;9975;48.046;7.804;2023-03-03T06:53:15;41.97;;;17.37;;
19653;SDS011;9975;48.046;7.804;2023-03-03T06:55:42;38.47;;;16.42;;
19653;SDS011;9975;48.046;7.804;2023-03-03T06:58:13;34.47;;;16.17;;
19653;SDS011;9975;48.046;7.804;2023-03-03T07:00:43;36.92;;;15.45;;
19653;SDS011;9975;48.046;7.804;2023-03-03T07:03:20;33.13;;;14.25;;
19653;SDS011;9975;48.046;7.804;2023-03-03T07:05:49;48.50;;;17.65;;
19653;SDS011;9975;48.046;7.804;2023-03-03T07:08:16;33.00;;;16.23;;
19653;SDS011;9975;48.046;7.804;2023-03-03T07:10:44;42.75;;;18.42;;
19653;SDS011;9975;48.046;7.804;2023-03-03T07:16:08;37.53;;;17.80;;
19653;SDS011;9975;48.046;7.804;2023-03-03T07:21:17;42.78;;;17.67;;
19653;SDS011;9975;48.046;7.804;2023-03-03T07:23:48;44.08;;;17.15;;
19653;SDS011;9975;48.046;7.804;2023-03-03T07:26:19;39.60;;;18.75;;
19653;SDS011;9975;48.046;7.804;2023-03-03T07:28:51;42.65;;;18.38;;
19653;SDS011;9975;48.046;7.804;2023-03-03T07:31:36;39.63;;;16.70;;
19653;SDS011;9975;48.046;7.804;2023-03-03T07:34:13;34.28;;;17.38;;
19653;SDS011;9975;48.046;7.804;2023-03-03T07:36:43;36.95;;;16.05;;
19653;SDS011;9975;48.046;7.804;2023-03-03T07:39:25;35.30;;;17.20;;
19653;SDS011;9975;48.046;7.804;2023-03-03T07:44:46;34.58;;;16.98;;
19653;SDS011;9975;48.046;7.804;2023-03-03T07:47:17;39.70;;;16.95;;
19653;SDS011;9975;48.046;7.804;2023-03-03T07:49:47;52.15;;;21.33;;
19653;SDS011;9975;48.046;7.804;2023-03-03T07:52:24;47.45;;;21.80;;
19653;SDS011;9975;48.046;7.804;2023-03-03T07:55:26;37.50;;;16.92;;
19653;SDS011;9975;48.046;7.804;2023-03-03T07:57:53;39.50;;;18.27;;
19653;SDS011;9975;48.046;7.804;2023-03-03T08:05:33;42.72;;;17.88;;
19653;SDS011;9975;48.046;7.804;2023-03-03T08:10:55;33.35;;;18.05;;
19653;SDS011;9975;48.046;7.804;2023-03-03T08:16:01;36.78;;;18.60;;
19653;SDS011;9975;48.046;7.804;2023-03-03T08:21:19;42.03;;;19.70;;
19653;SDS011;9975;48.046;7.804;2023-03-03T08:23:46;35.95;;;18.25;;
19653;SDS011;9975;48.046;7.804;2023-03-03T08:26:15;34.53;;;18.42;;
19653;SDS011;9975;48.046;7.804;2023-03-03T08:28:43;38.00;;;19.10;;
19653;SDS011;9975;48.046;7.804;2023-03-03T08:31:10;42.80;;;21.85;;
19653;SDS011;9975;48.046;7.804;2023-03-03T08:33:36;45.17;;;20.83;;
19653;SDS011;9975;48.046;7.804;2023-03-03T08:36:03;51.60;;;21.92;;
19653;SDS011;9975;48.046;7.804;2023-03-03T08:38:30;45.22;;;20.02;;
19653;SDS011;9975;48.046;7.804;2023-03-03T08:40:55;37.83;;;17.27;;
19653;SDS011;9975;48.046;7.804;2023-03-03T08:43:21;50.13;;;18.90;;
19653;SDS011;9975;48.046;7.804;2023-03-03T08:45:49;39.03;;;17.40;;
19653;SDS011;9975;48.046;7.804;2023-03-03T08:48:15;33.70;;;16.02;;
19653;SDS011;9975;48.046;7.804;2023-03-03T08:50:41;41.00;;;17.90;;
19653;SDS011;9975;48.046;7.804;2023-03-03T08:53:07;34.83;;;17.03;;
19653;SDS011;9975;48.046;7.804;2023-03-03T08:55:34;34.42;;;17.35;;
19653;SDS011;9975;48.046;7.804;2023-03-03T08:58:00;41.30;;;18.17;;
19653;SDS011;9975;48.046;7.804;2023-03-03T09:00:25;44.17;;;19.53;;
19653;SDS011;9975;48.046;7.804;2023-03-03T09:02:52;39.67;;;18.50;;
19653;SDS011;9975;48.046;7.804;2023-03-03T09:07:49;41.40;;;19.48;;
19653;SDS011;9975;48.046;7.804;2023-03-03T09:10:17;38.80;;;18.95;;
19653;SDS011;9975;48.046;7.804;2023-03-03T09:12:45;46.13;;;19.75;;
19653;SDS011;9975;48.046;7.804;2023-03-03T09:15:27;40.25;;;19.55;;
19653;SDS011;9975;48.046;7.804;2023-03-03T09:18:04;47.58;;;21.90;;
19653;SDS011;9975;48.046;7.804;2023-03-03T09:20:47;46.15;;;21.45;;
19653;SDS011;9975;48.046;7.804;2023-03-03T09:26:26;54.95;;;24.83;;
19653;SDS011;9975;48.046;7.804;2023-03-03T09:28:54;44.40;;;19.83;;
19653;SDS011;9975;48.046;7.804;2023-03-03T09:31:41;47.65;;;21.85;;
19653;SDS011;9975;48.046;7.804;2023-03-03T09:34:24;53.22;;;23.38;;
19653;SDS011;9975;48.046;7.804;2023-03-03T09:36:52;38.92;;;20.40;;
19653;SDS011;9975;48.046;7.804;2023-03-03T09:39:25;44.90;;;21.67;;
19653;SDS011;9975;48.046;7.804;2023-03-03T09:53:09;43.30;;;22.33;;
19653;SDS011;9975;48.046;7.804;2023-03-03T09:58:30;55.33;;;22.88;;
19653;SDS011;9975;48.046;7.804;2023-03-03T10:10:18;58.65;;;26.00;;
19653;SDS011;9975;48.046;7.804;2023-03-03T10:15:38;53.93;;;23.80;;
19653;SDS011;9975;48.046;7.804;2023-03-03T10:18:19;44.40;;;22.37;;
19653;SDS011;9975;48.046;7.804;2023-03-03T10:21:01;50.87;;;23.97;;
19653;SDS011;9975;48.046;7.804;2023-03-03T10:23:54;50.53;;;23.40;;
19653;SDS011;9975;48.046;7.804;2023-03-03T10:26:28;51.73;;;25.27;;
19653;SDS011;9975;48.046;7.804;2023-03-03T10:35:17;56.83;;;25.30;;
19653;SDS011;9975;48.046;7.804;2023-03-03T10:41:16;49.60;;;24.23;;
19653;SDS011;9975;48.046;7.804;2023-03-03T10:47:02;49.83;;;24.40;;
19653;SDS011;9975;48.046;7.804;2023-03-03T10:49:54;48.90;;;25.63;;
19653;SDS011;9975;48.046;7.804;2023-03-03T10:53:10;50.27;;;24.57;;
19653;SDS011;9975;48.046;7.804;2023-03-03T10:58:09;47.47;;;25.90;;
19653;SDS011;9975;48.046;7.804;2023-03-03T11:00:47;46.20;;;24.90;;
19653;SDS011;9975;48.046;7.804;2023-03-03T11:18:02;48.77;;;22.20;;
19653;SDS011;9975;48.046;7.804;2023-03-03T11:23:49;44.97;;;22.07;;
19653;SDS011;9975;48.046;7.804;2023-03-03T11:26:42;50.43;;;24.00;;
19653;SDS011;9975;48.046;7.804;2023-03-03T11:32:20;44.87;;;22.40;;
19653;SDS011;9975;48.046;7.804;2023-03-03T11:37:45;38.43;;;20.57;;
19653;SDS011;9975;48.046;7.804;2023-03-03T11:46:03;44.60;;;21.37;;
19653;SDS011;9975;48.046;7.804;2023-03-03T11:51:14;38.50;;;20.90;;
19653;SDS011;9975;48.046;7.804;2023-03-03T11:56:42;44.60;;;23.57;;
19653;SDS011;9975;48.046;7.804;2023-03-03T11:59:17;38.80;;;22.50;;
19653;SDS011;9975;48.046;7.804;2023-03-03T12:02:02;39.60;;;21.83;;
19653;SDS011;9975;48.046;7.804;2023-03-03T12:04:49;48.77;;;24.37;;
19653;SDS011;9975;48.046;7.804;2023-03-03T12:16:21;42.50;;;22.80;;
19653;SDS011;9975;48.046;7.804;2023-03-03T12:34:02;48.40;;;25.07;;
19653;SDS011;9975;48.046;7.804;2023-03-03T12:36:04;43.27;;;23.17;;
19653;SDS011;9975;48.046;7.804;2023-03-03T12:41:34;38.87;;;22.93;;
19653;SDS011;9975;48.046;7.804;2023-03-03T12:47:05;44.50;;;25.47;;
19653;SDS011;9975;48.046;7.804;2023-03-03T13:06:29;49.73;;;24.80;;
19653;SDS011;9975;48.046;7.804;2023-03-03T13:09:00;51.23;;;25.60;;
19653;SDS011;9975;48.046;7.804;2023-03-03T13:11:48;42.00;;;22.37;;
19653;SDS011;9975;48.046;7.804;2023-03-03T13:19:41;52.60;;;24.67;;
19653;SDS011;9975;48.046;7.804;2023-03-03T13:22:16;47.83;;;25.30;;
19653;SDS011;9975;48.046;7.804;2023-03-03T13:27:46;41.90;;;22.23;;
19653;SDS011;9975;48.046;7.804;2023-03-03T13:30:29;51.70;;;26.97;;
19653;SDS011;9975;48.046;7.804;2023-03-03T13:35:42;42.33;;;23.03;;
19653;SDS011;9975;48.046;7.804;2023-03-03T13:38:17;49.43;;;26.53;;
19653;SDS011;9975;48.046;7.804;2023-03-03T13:43:40;47.60;;;25.10;;
19653;SDS011;9975;48.046;7.804;2023-03-03T13:54:39;59.67;;;27.93;;
19653;SDS011;9975;48.046;7.804;2023-03-03T14:05:33;49.43;;;24.00;;
19653;SDS011;9975;48.046;7.804;2023-03-03T14:16:38;44.80;;;22.67;;
19653;SDS011;9975;48.046;7.804;2023-03-03T14:24:30;45.83;;;23.83;;
19653;SDS011;9975;48.046;7.804;2023-03-03T14:26:57;39.73;;;22.27;;
19653;SDS011;9975;48.046;7.804;2023-03-03T14:31:53;52.00;;;24.70;;
19653;SDS011;9975;48.046;7.804;2023-03-03T14:36:51;55.13;;;24.23;;
19653;SDS011;9975;48.046;7.804;2023-03-03T14:41:49;43.97;;;22.20;;
19653;SDS011;9975;48.046;7.804;2023-03-03T14:44:28;49.10;;;25.07;;
19653;SDS011;9975;48.046;7.804;2023-03-03T14:47:00;46.13;;;23.20;;
19653;SDS011;9975;48.046;7.804;2023-03-03T14:49:37;39.80;;;22.67;;
19653;SDS011;9975;48.046;7.804;2023-03-03T14:54:40;52.17;;;25.83;;
19653;SDS011;9975;48.046;7.804;2023-03-03T15:05:29;47.60;;;23.70;;
19653;SDS011;9975;48.046;7.804;2023-03-03T15:07:56;49.20;;;25.50;;
19653;SDS011;9975;48.046;7.804;2023-03-03T15:10:29;47.10;;;25.33;;
19653;SDS011;9975;48.046;7.804;2023-03-03T15:12:57;50.43;;;27.20;;
19653;SDS011;9975;48.046;7.804;2023-03-03T15:15:35;48.07;;;24.67;;
19653;SDS011;9975;48.046;7.804;2023-03-03T15:18:21;43.13;;;22.83;;
19653;SDS011;9975;48.046;7.804;2023-03-03T15:21:03;49.87;;;24.90;;
19653;SDS011;9975;48.046;7.804;2023-03-03T15:32:48;47.10;;;24.73;;
19653;SDS011;9975;48.046;7.804;2023-03-03T15:35:38;43.40;;;21.93;;
19653;SDS011;9975;48.046;7.804;2023-03-03T15:38:49;38.70;;;21.90;;
19653;SDS011;9975;48.046;7.804;2023-03-03T15:46:42;48.87;;;25.20;;
19653;SDS011;9975;48.046;7.804;2023-03-03T16:00:22;43.00;;;23.73;;
19653;SDS011;9975;48.046;7.804;2023-03-03T16:02:59;46.50;;;24.27;;
19653;SDS011;9975;48.046;7.804;2023-03-03T16:05:56;41.33;;;24.40;;
19653;SDS011;9975;48.046;7.804;2023-03-03T16:11:01;40.93;;;24.50;;
19653;SDS011;9975;48.046;7.804;2023-03-03T16:14:02;34.93;;;20.80;;
19653;SDS011;9975;48.046;7.804;2023-03-03T16:31:04;40.37;;;23.17;;
19653;SDS011;9975;48.046;7.804;2023-03-03T16:36:26;43.40;;;22.73;;
19653;SDS011;9975;48.046;7.804;2023-03-03T16:45:03;48.50;;;24.40;;
19653;SDS011;9975;48.046;7.804;2023-03-03T16:47:38;41.30;;;23.77;;
19653;SDS011;9975;48.046;7.804;2023-03-03T16:53:00;50.60;;;25.90;;
19653;SDS011;9975;48.046;7.804;2023-03-03T16:55:44;43.67;;;24.90;;
19653;SDS011;9975;48.046;7.804;2023-03-03T17:04:00;59.53;;;26.90;;
19653;SDS011;9975;48.046;7.804;2023-03-03T17:06:39;51.27;;;27.50;;
19653;SDS011;9975;48.046;7.804;2023-03-03T17:12:31;45.20;;;24.67;;
19653;SDS011;9975;48.046;7.804;2023-03-03T17:15:20;58.97;;;27.07;;
19653;SDS011;9975;48.046;7.804;2023-03-03T17:20:46;47.93;;;27.00;;
19653;SDS011;9975;48.046;7.804;2023-03-03T17:29:05;49.30;;;27.50;;
19653;SDS011;9975;48.046;7.804;2023-03-03T17:31:49;55.40;;;26.67;;
19653;SDS011;9975;48.046;7.804;2023-03-03T17:37:19;52.67;;;25.13;;
19653;SDS011;9975;48.046;7.804;2023-03-03T17:45:14;70.37;;;25.87;;
19653;SDS011;9975;48.046;7.804;2023-03-03T18:04:46;48.77;;;25.10;;
19653;SDS011;9975;48.046;7.804;2023-03-03T18:07:46;71.53;;;33.33;;
19653;SDS011;9975;48.046;7.804;2023-03-03T18:21:57;70.07;;;30.50;;
19653;SDS011;9975;48.046;7.804;2023-03-03T18:24:37;47.37;;;25.20;;
19653;SDS011;9975;48.046;7.804;2023-03-03T18:38:21;53.90;;;28.60;;
19653;SDS011;9975;48.046;7.804;2023-03-03T18:43:46;52.53;;;26.00;;
19653;SDS011;9975;48.046;7.804;2023-03-03T19:04:41;44.67;;;23.73;;
19653;SDS011;9975;48.046;7.804;2023-03-03T19:09:57;54.63;;;27.30;;
19653;SDS011;9975;48.046;7.804;2023-03-03T19:12:43;60.77;;;32.37;;
19653;SDS011;9975;48.046;7.804;2023-03-03T19:20:43;56.20;;;27.50;;
19653;SDS011;9975;48.046;7.804;2023-03-03T19:23:33;56.67;;;28.77;;
19653;SDS011;9975;48.046;7.804;2023-03-03T19:31:46;52.27;;;26.77;;
19653;SDS011;9975;48.046;7.804;2023-03-03T19:37:00;48.50;;;24.70;;
19653;SDS011;9975;48.046;7.804;2023-03-03T19:42:37;58.57;;;25.30;;
19653;SDS011;9975;48.046;7.804;2023-03-03T19:48:19;41.90;;;23.60;;
19653;SDS011;9975;48.046;7.804;2023-03-03T19:56:47;66.13;;;29.57;;
19653;SDS011;9975;48.046;7.804;2023-03-03T20:05:12;48.40;;;24.17;;
19653;SDS011;9975;48.046;7.804;2023-03-03T20:08:08;54.67;;;26.00;;
19653;SDS011;9975;48.046;7.804;2023-03-03T20:10:44;61.77;;;25.07;;
19653;SDS011;9975;48.046;7.804;2023-03-03T20:35:44;59.28;;;25.63;;
19653;SDS011;9975;48.046;7.804;2023-03-03T20:38:25;60.43;;;24.70;;
19653;SDS011;9975;48.046;7.804;2023-03-03T20:46:25;53.87;;;25.33;;
19653;SDS011;9975;48.046;7.804;2023-03-03T20:49:03;51.07;;;27.30;;
19653;SDS011;9975;48.046;7.804;2023-03-03T20:57:08;62.55;;;28.48;;
19653;SDS011;9975;48.046;7.804;2023-03-03T20:59:46;62.33;;;27.37;;
19653;SDS011;9975;48.046;7.804;2023-03-03T21:05:05;59.67;;;27.15;;
19653;SDS011;9975;48.046;7.804;2023-03-03T21:07:37;54.08;;;25.65;;
19653;SDS011;9975;48.046;7.804;2023-03-03T21:10:19;52.30;;;25.90;;
19653;SDS011;9975;48.046;7.804;2023-03-03T21:12:51;57.60;;;26.15;;
19653;SDS011;9975;48.046;7.804;2023-03-03T21:15:23;49.05;;;25.02;;
19653;SDS011;9975;48.046;7.804;2023-03-03T21:17:50;59.92;;;26.60;;
19653;SDS011;9975;48.046;7.804;2023-03-03T21:20:21;57.80;;;24.45;;
19653;SDS011;9975;48.046;7.804;2023-03-03T21:22:51;43.92;;;22.83;;
19653;SDS011;9975;48.046;7.804;2023-03-03T21:28:16;45.95;;;22.55;;
19653;SDS011;9975;48.046;7.804;2023-03-03T21:36:21;52.47;;;25.33;;
19653;SDS011;9975;48.046;7.804;2023-03-03T21:38:55;41.67;;;23.10;;
19653;SDS011;9975;48.046;7.804;2023-03-03T21:41:22;44.55;;;22.88;;
19653;SDS011;9975;48.046;7.804;2023-03-03T21:43:50;42.92;;;21.58;;
19653;SDS011;9975;48.046;7.804;2023-03-03T21:46:21;41.53;;;21.20;;
19653;SDS011;9975;48.046;7.804;2023-03-03T21:48:52;47.00;;;22.25;;
19653;SDS011;9975;48.046;7.804;2023-03-03T21:51:17;44.78;;;22.85;;
19653;SDS011;9975;48.046;7.804;2023-03-03T21:53:45;42.67;;;21.45;;
19653;SDS011;9975;48.046;7.804;2023-03-03T21:56:11;40.23;;;21.03;;
19653;SDS011;9975;48.046;7.804;2023-03-03T21:58:38;50.15;;;21.27;;
19653;SDS011;9975;48.046;7.804;2023-03-03T22:01:05;47.90;;;22.10;;
19653;SDS011;9975;48.046;7.804;2023-03-03T22:03:31;44.65;;;21.42;;
19653;SDS011;9975;48.046;7.804;2023-03-03T22:05:58;41.85;;;22.63;;
19653;SDS011;9975;48.046;7.804;2023-03-03T22:08:24;41.03;;;19.67;;
19653;SDS011;9975;48.046;7.804;2023-03-03T22:10:51;48.50;;;21.27;;
19653;SDS011;9975;48.046;7.804;2023-03-03T22:13:20;46.35;;;22.30;;
19653;SDS011;9975;48.046;7.804;2023-03-03T22:15:49;42.92;;;23.08;;
19653;SDS011;9975;48.046;7.804;2023-03-03T22:18:15;50.70;;;23.40;;
19653;SDS011;9975;48.046;7.804;2023-03-03T22:20:42;47.80;;;24.42;;
19653;SDS011;9975;48.046;7.804;2023-03-03T22:23:09;45.45;;;22.35;;
19653;SDS011;9975;48.046;7.804;2023-03-03T22:25:35;53.93;;;25.10;;
19653;SDS011;9975;48.046;7.804;2023-03-03T22:28:02;55.33;;;26.60;;
19653;SDS011;9975;48.046;7.804;2023-03-03T22:30:28;47.75;;;22.70;;
19653;SDS011;9975;48.046;7.804;2023-03-03T22:32:53;56.53;;;23.33;;
19653;SDS011;9975;48.046;7.804;2023-03-03T22:35:19;51.00;;;23.07;;
19653;SDS011;9975;48.046;7.804;2023-03-03T22:37:45;44.60;;;20.70;;
19653;SDS011;9975;48.046;7.804;2023-03-03T22:40:11;49.50;;;22.60;;
19653;SDS011;9975;48.046;7.804;2023-03-03T22:42:37;42.97;;;20.35;;
19653;SDS011;9975;48.046;7.804;2023-03-03T22:45:03;46.40;;;21.93;;
19653;SDS011;9975;48.046;7.804;2023-03-03T22:47:29;54.25;;;22.02;;
19653;SDS011;9975;48.046;7.804;2023-03-03T22:49:57;42.85;;;21.35;;
19653;SDS011;9975;48.046;7.804;2023-03-03T22:52:23;50.30;;;21.77;;
19653;SDS011;9975;48.046;7.804;2023-03-03T22:54:48;54.80;;;20.87;;
19653;SDS011;9975;48.046;7.804;2023-03-03T22:57:14;58.17;;;22.83;;
19653;SDS011;9975;48.046;7.804;2023-03-03T22:59:40;44.07;;;20.20;;
19653;SDS011;9975;48.046;7.804;2023-03-03T23:02:05;54.10;;;23.00;;
19653;SDS011;9975;48.046;7.804;2023-03-03T23:04:31;79.50;;;26.30;;
19653;SDS011;9975;48.046;7.804;2023-03-03T23:06:57;55.37;;;24.60;;
19653;SDS011;9975;48.046;7.804;2023-03-03T23:09:24;55.17;;;22.70;;
19653;SDS011;9975;48.046;7.804;2023-03-03T23:11:49;53.37;;;23.03;;
19653;SDS011;9975;48.046;7.804;2023-03-03T23:14:15;41.90;;;20.70;;
19653;SDS011;9975;48.046;7.804;2023-03-03T23:16:41;56.63;;;21.30;;
19653;SDS011;9975;48.046;7.804;2023-03-03T23:19:06;56.23;;;23.23;;
19653;SDS011;9975;48.046;7.804;2023-03-03T23:21:32;58.50;;;22.37;;
19653;SDS011;9975;48.046;7.804;2023-03-03T23:23:58;53.37;;;23.00;;
19653;SDS011;9975;48.046;7.804;2023-03-03T23:26:25;45.73;;;21.03;;
19653;SDS011;9975;48.046;7.804;2023-03-03T23:28:50;53.42;;;20.60;;
19653;SDS011;9975;48.046;7.804;2023-03-03T23:31:16;39.10;;;20.33;;
19653;SDS011;9975;48.046;7.804;2023-03-03T23:33:42;44.60;;;19.83;;
19653;SDS011;9975;48.046;7.804;2023-03-03T23:36:07;44.17;;;19.57;;
19653;SDS011;9975;48.046;7.804;2023-03-03T23:38:33;43.50;;;19.00;;
19653;SDS011;9975;48.046;7.804;2023-03-03T23:40:59;42.47;;;19.97;;
19653;SDS011;9975;48.046;7.804;2023-03-03T23:43:25;39.07;;;17.43;;
19653;SDS011;9975;48.046;7.804;2023-03-03T23:45:50;43.93;;;20.53;;
